Time;durP1;ratioP1;P1;durP2;ratioP2;P2;SDS_P1;SDS_P2;PMS_P1;PMS_P2;Temp;Humidity;BMP_temperature;BMP_pressure;BME280_temperature;BME280_humidity;BME280_pressure;Samples;Min_cycle;Max_cycle;Signal;HPM_P1;HPM_P2
2021/03/11 00:00:35;;;;;;;;;;;11.30;44.10;;;;;;5013269;28;19932;-74
2021/03/11 00:03:02;;;;;;;;;;;11.30;44.00;;;;;;5013053;28;20373;-74
2021/03/11 00:05:29;;;;;;;;;;;11.30;44.20;;;;;;5009807;28;20370;-74
2021/03/11 00:07:55;;;;;;;;;;;11.30;44.20;;;;;;5013672;28;20388;-74
2021/03/11 00:10:21;;;;;;;;;;;11.30;44.30;;;;;;5012782;28;19956;-74
2021/03/11 00:12:48;;;;;;;;;;;11.30;44.30;;;;;;5013498;28;20016;-74
2021/03/11 00:15:15;;;;;;;;;;;11.30;44.00;;;;;;5012678;28;19922;-74
2021/03/11 00:17:41;;;;;;;;;;;11.30;43.90;;;;;;5013715;28;19969;-74
2021/03/11 00:20:09;;;;;;;;;;;11.30;43.90;;;;;;5010626;28;19921;-74
2021/03/11 00:22:36;;;;;;;;;;;11.40;44.10;;;;;;5013624;28;20271;-76
2021/03/11 00:25:04;;;;;;;;;;;11.40;44.30;;;;;;5013179;28;19975;-76
2021/03/11 00:27:31;;;;;;;;;;;11.40;44.30;;;;;;5012418;28;19925;-75
2021/03/11 00:29:57;;;;;;;;;;;11.40;44.30;;;;;;5012934;28;19965;-74
2021/03/11 00:32:23;;;;;;;;;;;11.40;44.20;;;;;;5012867;28;19922;-74
2021/03/11 00:34:49;;;;;;;;;;;11.40;44.00;;;;;;5012330;28;19922;-74
2021/03/11 00:37:16;;;;;;;;;;;11.40;44.00;;;;;;5012708;28;19941;-74
2021/03/11 00:39:43;;;;;;;;;;;11.40;43.90;;;;;;5012269;28;19921;-75
2021/03/11 00:42:09;;;;;;;;;;;11.40;44.00;;;;;;5012587;28;19925;-74
2021/03/11 00:44:36;;;;;;;;;;;11.50;44.00;;;;;;5012729;28;19922;-74
2021/03/11 00:47:02;;;;;;;;;;;11.50;44.10;;;;;;5011637;28;19921;-74
2021/03/11 00:49:28;;;;;;;;;;;11.50;43.90;;;;;;5012415;28;19976;-73
2021/03/11 00:51:55;;;;;;;;;;;11.50;43.70;;;;;;5013120;28;19929;-73
2021/03/11 00:54:21;;;;;;;;;;;11.50;44.10;;;;;;5012668;28;19952;-74
2021/03/11 00:56:48;;;;;;;;;;;11.50;43.50;;;;;;5013281;28;19929;-74
2021/03/11 00:59:14;;;;;;;;;;;11.50;43.70;;;;;;5011672;28;19921;-74
2021/03/11 01:01:41;;;;;;;;;;;11.50;43.70;;;;;;5013115;28;19926;-74
2021/03/11 01:04:07;;;;;;;;;;;11.50;43.80;;;;;;5012244;28;19929;-74
2021/03/11 01:06:33;;;;;;;;;;;11.50;43.70;;;;;;5012502;28;19922;-74
2021/03/11 01:09:00;;;;;;;;;;;11.60;43.80;;;;;;5011867;28;19921;-74
2021/03/11 01:11:26;;;;;;;;;;;11.60;43.90;;;;;;5012362;28;19932;-74
2021/03/11 01:13:53;;;;;;;;;;;11.60;43.70;;;;;;5010995;28;19933;-74
2021/03/11 01:16:19;;;;;;;;;;;11.60;43.80;;;;;;5012931;28;19948;-74
2021/03/11 01:18:46;;;;;;;;;;;11.60;43.80;;;;;;5012468;28;20005;-74
2021/03/11 01:21:12;;;;;;;;;;;11.60;43.80;;;;;;5011352;28;19921;-73
2021/03/11 01:23:38;;;;;;;;;;;11.60;43.90;;;;;;5012124;28;19921;-74
2021/03/11 01:26:04;;;;;;;;;;;11.60;43.90;;;;;;5012318;28;19929;-74
2021/03/11 01:28:31;;;;;;;;;;;11.60;43.90;;;;;;5011887;28;20274;-74
2021/03/11 01:30:58;;;;;;;;;;;11.70;44.10;;;;;;5012099;28;19945;-74
2021/03/11 01:33:24;;;;;;;;;;;11.60;44.00;;;;;;5012605;28;19921;-74
2021/03/11 01:35:51;;;;;;;;;;;11.60;43.90;;;;;;5012474;28;20374;-74
2021/03/11 01:38:17;;;;;;;;;;;11.60;44.20;;;;;;5012427;28;19921;-73
2021/03/11 01:40:43;;;;;;;;;;;11.60;44.20;;;;;;5010988;28;19921;-74
2021/03/11 01:43:10;;;;;;;;;;;11.60;44.30;;;;;;5011915;28;19921;-74
2021/03/11 01:45:36;;;;;;;;;;;11.60;44.20;;;;;;5012826;28;19928;-74
2021/03/11 01:48:03;;;;;;;;;;;11.60;44.40;;;;;;5012386;28;19921;-74
2021/03/11 01:50:30;;;;;;;;;;;11.60;44.40;;;;;;5012053;28;19932;-73
2021/03/11 01:52:56;;;;;;;;;;;11.60;44.40;;;;;;5013247;28;19925;-73
2021/03/11 01:55:23;;;;;;;;;;;11.60;44.70;;;;;;5015305;28;20432;-74
2021/03/11 01:57:49;;;;;;;;;;;11.60;44.60;;;;;;5016207;28;19929;-74
2021/03/11 02:00:16;;;;;;;;;;;11.70;44.90;;;;;;5014925;28;19921;-74
2021/03/11 02:02:43;;;;;;;;;;;11.70;45.00;;;;;;5015225;28;19943;-74
2021/03/11 02:05:11;;;;;;;;;;;11.70;45.20;;;;;;5015259;28;20289;-73
2021/03/11 02:07:37;;;;;;;;;;;11.70;45.50;;;;;;5012509;28;19921;-73
2021/03/11 02:10:05;;;;;;;;;;;11.70;45.90;;;;;;5015382;28;20277;-74
2021/03/11 02:12:34;;;;;;;;;;;11.70;46.10;;;;;;5015947;28;20378;-73
2021/03/11 02:15:05;;;;;;;;;;;11.70;46.10;;;;;;5015232;28;20405;-74
2021/03/11 02:17:34;;;;;;;;;;;11.70;46.30;;;;;;5015326;28;20328;-74
2021/03/11 02:20:11;;;;;;;;;;;11.70;46.40;;;;;;5015593;28;20301;-74
2021/03/11 02:22:45;;;;;;;;;;;11.80;46.70;;;;;;5014148;28;19926;-73
2021/03/11 02:25:14;;;;;;;;;;;11.70;46.60;;;;;;5015537;28;19921;-74
2021/03/11 02:27:49;;;;;;;;;;;11.80;46.70;;;;;;5015231;28;19928;-73
2021/03/11 02:30:16;;;;;;;;;;;11.70;46.80;;;;;;5014602;28;20362;-74
2021/03/11 02:32:43;;;;;;;;;;;11.70;46.70;;;;;;5015715;28;19921;-74
2021/03/11 02:35:11;;;;;;;;;;;11.80;46.80;;;;;;5012713;28;20019;-74
2021/03/11 02:37:39;;;;;;;;;;;11.70;46.80;;;;;;5014371;28;19928;-74
2021/03/11 02:40:09;;;;;;;;;;;11.80;46.90;;;;;;5015590;28;19922;-74
2021/03/11 02:42:36;;;;;;;;;;;11.80;47.00;;;;;;5015318;28;19925;-74
2021/03/11 02:45:05;;;;;;;;;;;11.80;47.20;;;;;;5014350;28;19921;-74
2021/03/11 02:47:33;;;;;;;;;;;11.80;47.30;;;;;;5013159;28;20386;-74
2021/03/11 02:50:00;;;;;;;;;;;11.80;47.00;;;;;;5014574;28;19929;-74
2021/03/11 02:52:27;;;;;;;;;;;11.80;46.90;;;;;;5013942;28;20393;-75
2021/03/11 02:54:54;;;;;;;;;;;11.80;46.90;;;;;;5014401;28;19928;-75
2021/03/11 02:57:22;;;;;;;;;;;11.80;46.90;;;;;;5014771;28;19973;-75
2021/03/11 02:59:49;;;;;;;;;;;11.80;46.80;;;;;;5014693;28;20296;-75
2021/03/11 03:02:16;;;;;;;;;;;11.80;46.60;;;;;;5012216;28;19921;-74
2021/03/11 03:04:45;;;;;;;;;;;11.80;46.50;;;;;;5013020;28;19925;-74
2021/03/11 03:07:14;;;;;;;;;;;11.80;46.50;;;;;;5010525;28;19922;-75
2021/03/11 03:09:41;;;;;;;;;;;11.80;46.70;;;;;;5011412;28;19932;-75
2021/03/11 03:12:08;;;;;;;;;;;11.80;46.80;;;;;;5013389;28;19921;-75
2021/03/11 03:14:35;;;;;;;;;;;11.80;46.50;;;;;;5013934;28;19921;-74
2021/03/11 03:17:01;;;;;;;;;;;11.80;46.30;;;;;;5013171;28;19930;-74
2021/03/11 03:19:27;;;;;;;;;;;11.80;46.20;;;;;;5014062;28;19921;-74
2021/03/11 03:21:55;;;;;;;;;;;11.80;46.30;;;;;;5012582;28;19925;-75
2021/03/11 03:24:22;;;;;;;;;;;11.80;46.10;;;;;;5014624;28;19921;-74
2021/03/11 03:26:48;;;;;;;;;;;11.80;46.10;;;;;;5013362;28;19921;-75
2021/03/11 03:29:15;;;;;;;;;;;11.80;45.90;;;;;;5011868;28;20271;-74
2021/03/11 03:31:41;;;;;;;;;;;11.80;46.10;;;;;;5013193;28;19925;-74
2021/03/11 03:34:08;;;;;;;;;;;11.80;46.80;;;;;;5014583;28;19921;-75
2021/03/11 03:36:34;;;;;;;;;;;11.80;47.30;;;;;;5012267;28;19921;-75
2021/03/11 03:39:01;;;;;;;;;;;11.70;47.70;;;;;;5014474;28;19929;-75
2021/03/11 03:41:28;;;;;;;;;;;11.70;47.80;;;;;;5013854;28;19925;-75
2021/03/11 03:43:55;;;;;;;;;;;11.70;47.70;;;;;;5013128;28;20366;-75
2021/03/11 03:46:23;;;;;;;;;;;11.70;47.50;;;;;;5013266;28;19928;-75
2021/03/11 03:48:50;;;;;;;;;;;11.70;47.50;;;;;;5012829;28;19929;-75
2021/03/11 03:51:18;;;;;;;;;;;11.70;47.70;;;;;;5011985;28;19979;-76
2021/03/11 03:53:47;;;;;;;;;;;11.70;48.60;;;;;;5012736;28;19921;-77
2021/03/11 03:56:16;;;;;;;;;;;11.80;48.20;;;;;;5011898;28;19965;-75
2021/03/11 03:58:53;;;;;;;;;;;11.70;48.30;;;;;;5007083;28;19925;-79
2021/03/11 04:01:21;;;;;;;;;;;11.80;48.60;;;;;;5006380;28;19928;-75
2021/03/11 04:03:49;;;;;;;;;;;11.80;48.70;;;;;;5013090;28;20024;-75
2021/03/11 04:06:15;;;;;;;;;;;11.80;49.30;;;;;;5012765;28;19963;-75
2021/03/11 04:08:42;;;;;;;;;;;11.80;48.80;;;;;;5012873;28;20393;-75
2021/03/11 04:11:09;;;;;;;;;;;11.80;48.90;;;;;;5012691;28;19922;-75
2021/03/11 04:13:36;;;;;;;;;;;11.80;49.00;;;;;;5013108;28;19929;-75
2021/03/11 04:16:03;;;;;;;;;;;11.80;49.20;;;;;;5011977;28;19928;-75
2021/03/11 04:18:29;;;;;;;;;;;11.80;49.50;;;;;;5013501;28;19921;-75
2021/03/11 04:20:56;;;;;;;;;;;11.90;50.10;;;;;;5013291;28;19925;-75
2021/03/11 04:23:22;;;;;;;;;;;11.90;50.30;;;;;;5011342;28;20017;-75
2021/03/11 04:25:49;;;;;;;;;;;11.90;50.70;;;;;;5012136;28;19928;-74
2021/03/11 04:28:15;;;;;;;;;;;12.00;50.90;;;;;;5013678;28;19932;-74
2021/03/11 04:30:44;;;;;;;;;;;12.00;51.00;;;;;;5012928;28;20362;-74
2021/03/11 04:33:10;;;;;;;;;;;12.10;51.10;;;;;;5012471;28;20279;-74
2021/03/11 04:35:37;;;;;;;;;;;12.10;51.30;;;;;;5013425;28;19925;-74
2021/03/11 04:38:03;;;;;;;;;;;12.10;51.40;;;;;;5011128;28;19921;-74
2021/03/11 04:40:30;;;;;;;;;;;12.10;51.70;;;;;;5012582;28;19925;-74
2021/03/11 04:42:56;;;;;;;;;;;12.20;51.50;;;;;;5012852;28;19921;-75
2021/03/11 04:45:23;;;;;;;;;;;12.20;51.30;;;;;;5012675;28;19926;-74
2021/03/11 04:47:50;;;;;;;;;;;12.30;51.30;;;;;;5011903;28;19929;-74
2021/03/11 04:50:17;;;;;;;;;;;12.30;51.30;;;;;;5010957;28;20366;-74
2021/03/11 04:52:43;;;;;;;;;;;12.30;51.40;;;;;;5013323;28;19928;-74
2021/03/11 04:55:10;;;;;;;;;;;12.30;51.70;;;;;;5011292;28;19925;-74
2021/03/11 04:57:37;;;;;;;;;;;12.30;51.70;;;;;;5012884;28;20428;-76
2021/03/11 05:00:04;;;;;;;;;;;12.30;51.80;;;;;;4995174;28;19921;-74
2021/03/11 05:02:31;;;;;;;;;;;12.30;51.90;;;;;;5012466;28;20282;-78
2021/03/11 05:05:07;;;;;;;;;;;12.30;52.10;;;;;;5010960;28;19979;-76
2021/03/11 05:07:40;;;;;;;;;;;12.30;52.10;;;;;;5013133;28;19964;-76
2021/03/11 05:10:18;;;;;;;;;;;;;;;;;;;;;
2021/03/11 05:12:45;;;;;;;;;;;12.20;52.30;;;;;;5011506;28;19922;-74
2021/03/11 05:15:12;;;;;;;;;;;12.30;52.30;;;;;;5011584;28;19929;-75
2021/03/11 05:17:39;;;;;;;;;;;12.30;52.40;;;;;;5011457;28;19928;-74
2021/03/11 05:20:09;;;;;;;;;;;12.30;52.50;;;;;;5012215;28;19925;-75
2021/03/11 05:22:35;;;;;;;;;;;12.30;52.60;;;;;;5012427;28;19922;-74
2021/03/11 05:25:02;;;;;;;;;;;12.20;52.60;;;;;;5011275;28;19944;-73
2021/03/11 05:27:28;;;;;;;;;;;12.20;52.80;;;;;;5014824;28;19921;-73
2021/03/11 05:29:54;;;;;;;;;;;12.20;52.80;;;;;;5015777;28;19928;-73
2021/03/11 05:32:23;;;;;;;;;;;12.20;52.90;;;;;;5016494;28;19922;-76
2021/03/11 05:34:50;;;;;;;;;;;12.10;53.10;;;;;;5015229;28;19928;-74
2021/03/11 05:37:18;;;;;;;;;;;12.00;53.30;;;;;;5016216;28;19975;-76
2021/03/11 05:39:45;;;;;;;;;;;12.00;53.40;;;;;;5015904;28;19921;-75
2021/03/11 05:42:12;;;;;;;;;;;12.10;53.50;;;;;;5015067;28;19922;-74
2021/03/11 05:44:38;;;;;;;;;;;12.10;53.40;;;;;;5015081;28;19944;-75
2021/03/11 05:47:06;;;;;;;;;;;12.20;53.50;;;;;;5016130;28;20298;-76
2021/03/11 05:49:33;;;;;;;;;;;12.20;53.50;;;;;;5015512;28;20018;-75
2021/03/11 05:52:00;;;;;;;;;;;12.20;53.60;;;;;;5016129;28;19976;-75
2021/03/11 05:54:29;;;;;;;;;;;12.20;53.60;;;;;;5015700;28;19921;-79
2021/03/11 05:56:55;;;;;;;;;;;12.20;53.70;;;;;;5016190;28;19946;-75
2021/03/11 05:59:22;;;;;;;;;;;12.20;53.80;;;;;;5015361;28;19921;-75
2021/03/11 06:01:49;;;;;;;;;;;12.20;53.80;;;;;;5015936;28;19929;-74
2021/03/11 06:04:15;;;;;;;;;;;12.30;53.80;;;;;;5015055;28;19951;-74
2021/03/11 06:06:42;;;;;;;;;;;12.40;53.70;;;;;;5014948;28;19922;-74
2021/03/11 06:09:09;;;;;;;;;;;12.40;53.60;;;;;;5014821;28;19929;-74
2021/03/11 06:11:38;;;;;;;;;;;12.40;53.60;;;;;;5011868;28;19976;-74
2021/03/11 06:14:05;;;;;;;;;;;12.40;53.70;;;;;;5014994;28;20032;-75
2021/03/11 06:16:31;;;;;;;;;;;12.40;53.60;;;;;;5015207;28;20377;-74
2021/03/11 06:18:58;;;;;;;;;;;12.40;53.70;;;;;;5014152;28;19967;-75
2021/03/11 06:21:24;;;;;;;;;;;12.40;53.90;;;;;;5014913;28;19928;-74
2021/03/11 06:23:50;;;;;;;;;;;12.40;54.10;;;;;;5014611;28;20330;-75
2021/03/11 06:26:17;;;;;;;;;;;12.30;54.00;;;;;;5014827;28;20274;-75
2021/03/11 06:28:51;;;;;;;;;;;12.30;54.20;;;;;;5014834;28;19937;-74
2021/03/11 06:31:18;;;;;;;;;;;12.40;54.20;;;;;;5014941;28;19925;-74
2021/03/11 06:33:44;;;;;;;;;;;12.40;54.20;;;;;;5014445;28;19956;-74
2021/03/11 06:36:11;;;;;;;;;;;12.40;54.20;;;;;;5013934;28;19922;-74
2021/03/11 06:38:37;;;;;;;;;;;12.40;54.10;;;;;;5012195;28;19968;-74
2021/03/11 06:41:03;;;;;;;;;;;12.40;54.10;;;;;;5014614;28;20354;-74
2021/03/11 06:43:30;;;;;;;;;;;12.40;53.90;;;;;;5014577;28;19936;-74
2021/03/11 06:46:05;;;;;;;;;;;12.40;53.80;;;;;;5013151;28;20374;-74
2021/03/11 06:48:31;;;;;;;;;;;12.50;53.70;;;;;;5010180;28;19972;-74
2021/03/11 06:50:58;;;;;;;;;;;12.50;53.50;;;;;;5014897;28;19921;-74
2021/03/11 06:53:24;;;;;;;;;;;12.50;53.60;;;;;;5014709;28;19928;-73
2021/03/11 06:55:51;;;;;;;;;;;12.50;53.30;;;;;;5014506;28;19926;-73
2021/03/11 06:58:18;;;;;;;;;;;12.60;53.30;;;;;;5013716;28;19921;-73
2021/03/11 07:00:44;;;;;;;;;;;12.60;53.10;;;;;;5012795;28;19925;-73
2021/03/11 07:03:12;;;;;;;;;;;12.60;53.10;;;;;;5015023;28;19925;-73
2021/03/11 07:05:38;;;;;;;;;;;12.60;53.00;;;;;;5012344;28;19928;-73
2021/03/11 07:08:05;;;;;;;;;;;12.60;52.90;;;;;;5009681;28;20374;-73
2021/03/11 07:10:32;;;;;;;;;;;12.60;53.00;;;;;;5013295;28;19944;-73
2021/03/11 07:12:59;;;;;;;;;;;12.60;53.10;;;;;;5007932;28;20290;-73
2021/03/11 07:15:26;;;;;;;;;;;12.70;53.10;;;;;;5008662;28;20290;-73
2021/03/11 07:17:53;;;;;;;;;;;12.70;53.00;;;;;;5014155;28;19925;-73
2021/03/11 07:20:21;;;;;;;;;;;12.80;52.90;;;;;;5014117;28;19922;-73
2021/03/11 07:23:00;;;;;;;;;;;12.90;52.90;;;;;;5014139;28;19929;-73
2021/03/11 07:25:28;;;;;;;;;;;12.90;52.70;;;;;;5013627;28;19965;-72
2021/03/11 07:27:55;;;;;;;;;;;12.90;52.80;;;;;;5014016;28;19953;-73
2021/03/11 07:30:24;;;;;;;;;;;13.00;53.40;;;;;;5012775;28;20405;-73
2021/03/11 07:32:51;;;;;;;;;;;13.00;52.80;;;;;;5012288;28;19929;-73
2021/03/11 07:35:18;;;;;;;;;;;12.90;53.10;;;;;;5014134;28;20016;-73
2021/03/11 07:37:49;;;;;;;;;;;12.90;53.20;;;;;;5013498;28;19925;-73
2021/03/11 07:40:16;;;;;;;;;;;13.00;53.20;;;;;;5013185;28;20288;-74
2021/03/11 07:42:43;;;;;;;;;;;13.00;53.10;;;;;;5013273;28;20385;-73
2021/03/11 07:45:11;;;;;;;;;;;13.10;53.10;;;;;;5012569;28;19932;-74
2021/03/11 07:47:39;;;;;;;;;;;13.10;53.10;;;;;;5013080;28;19921;-74
2021/03/11 07:50:07;;;;;;;;;;;13.20;53.10;;;;;;5013468;28;19925;-74
2021/03/11 07:52:34;;;;;;;;;;;13.30;53.30;;;;;;5013416;28;19928;-74
2021/03/11 07:55:03;;;;;;;;;;;13.30;53.00;;;;;;5013178;28;19937;-75
2021/03/11 07:57:31;;;;;;;;;;;13.30;53.00;;;;;;5012802;28;19969;-74
2021/03/11 07:59:57;;;;;;;;;;;13.40;53.10;;;;;;5010966;28;19925;-74
2021/03/11 08:02:24;;;;;;;;;;;13.40;53.00;;;;;;5013563;28;20392;-74
2021/03/11 08:04:50;;;;;;;;;;;13.50;52.90;;;;;;5013533;28;19930;-74
2021/03/11 08:07:20;;;;;;;;;;;13.50;52.90;;;;;;5012916;28;19975;-74
2021/03/11 08:09:48;;;;;;;;;;;13.60;52.90;;;;;;5005293;28;19926;-76
2021/03/11 08:12:28;;;;;;;;;;;13.60;52.70;;;;;;5013208;28;19921;-75
2021/03/11 08:14:55;;;;;;;;;;;13.70;52.80;;;;;;5011103;28;19928;-75
2021/03/11 08:17:36;;;;;;;;;;;13.70;52.70;;;;;;4993947;28;19933;-74
2021/03/11 08:20:02;;;;;;;;;;;13.70;52.50;;;;;;5006252;28;19922;-74
2021/03/11 08:22:47;;;;;;;;;;;13.80;52.50;;;;;;5012657;28;19922;-74
2021/03/11 08:25:38;;;;;;;;;;;13.90;52.30;;;;;;5011525;28;19921;-74
2021/03/11 08:28:27;;;;;;;;;;;13.90;52.40;;;;;;5012827;28;19921;-74
2021/03/11 08:30:53;;;;;;;;;;;14.00;52.00;;;;;;5012056;28;20413;-74
2021/03/11 08:33:40;;;;;;;;;;;14.10;51.90;;;;;;5012726;28;20271;-74
2021/03/11 08:36:06;;;;;;;;;;;14.30;51.60;;;;;;5012353;28;19921;-74
2021/03/11 08:38:39;;;;;;;;;;;14.40;51.30;;;;;;5011701;28;19971;-74
2021/03/11 08:41:06;;;;;;;;;;;14.30;51.30;;;;;;5011011;28;19926;-74
2021/03/11 08:43:54;;;;;;;;;;;14.30;51.40;;;;;;5013006;28;19927;-74
2021/03/11 08:46:21;;;;;;;;;;;14.30;51.50;;;;;;4988755;28;19921;-73
2021/03/11 08:48:51;;;;;;;;;;;14.30;51.40;;;;;;5012523;28;19929;-74
2021/03/11 08:51:37;;;;;;;;;;;14.30;51.40;;;;;;5012132;28;19925;-73
2021/03/11 08:54:04;;;;;;;;;;;14.40;51.60;;;;;;5008793;28;19932;-73
2021/03/11 08:56:37;;;;;;;;;;;14.40;51.80;;;;;;5011880;28;19968;-73
2021/03/11 08:59:04;;;;;;;;;;;14.30;52.30;;;;;;5011944;28;20270;-73
2021/03/11 09:01:38;;;;;;;;;;;14.40;52.60;;;;;;5014602;28;20440;-74
2021/03/11 09:04:05;;;;;;;;;;;14.40;52.60;;;;;;5019123;28;20274;-73
2021/03/11 09:06:51;;;;;;;;;;;14.60;52.50;;;;;;5018683;28;19980;-75
2021/03/11 09:09:17;;;;;;;;;;;14.70;52.30;;;;;;5018933;28;19925;-75
2021/03/11 09:11:53;;;;;;;;;;;14.90;52.10;;;;;;5016692;28;19921;-75
2021/03/11 09:14:20;;;;;;;;;;;15.00;52.10;;;;;;5013431;28;19925;-75
2021/03/11 09:16:48;;;;;;;;;;;15.00;51.90;;;;;;5018684;28;20048;-75
2021/03/11 09:19:14;;;;;;;;;;;15.10;52.20;;;;;;5019389;28;19976;-75
2021/03/11 09:21:41;;;;;;;;;;;15.20;51.90;;;;;;5017084;28;19983;-76
2021/03/11 09:24:15;;;;;;;;;;;15.20;51.50;;;;;;5018299;28;19921;-75
2021/03/11 09:26:41;;;;;;;;;;;15.30;51.40;;;;;;5019112;28;19926;-76
2021/03/11 09:29:08;;;;;;;;;;;15.40;51.30;;;;;;5017385;28;19932;-77
2021/03/11 09:31:34;;;;;;;;;;;15.40;51.00;;;;;;5018505;28;20374;-76
2021/03/11 09:34:02;;;;;;;;;;;15.40;50.70;;;;;;5018463;28;19925;-76
2021/03/11 09:36:28;;;;;;;;;;;15.40;50.60;;;;;;5018705;28;19922;-76
2021/03/11 09:38:59;;;;;;;;;;;15.40;50.50;;;;;;5018831;28;19929;-76
2021/03/11 09:41:25;;;;;;;;;;;15.40;50.70;;;;;;5018017;28;20366;-75
2021/03/11 09:43:52;;;;;;;;;;;15.40;50.50;;;;;;5017931;28;20469;-75
2021/03/11 09:46:20;;;;;;;;;;;15.50;50.50;;;;;;5019167;28;20358;-75
2021/03/11 09:48:46;;;;;;;;;;;15.60;50.30;;;;;;5016346;28;19968;-76
2021/03/11 09:51:14;;;;;;;;;;;15.70;50.30;;;;;;5018384;28;19937;-76
2021/03/11 09:53:42;;;;;;;;;;;15.60;50.40;;;;;;5018074;28;19929;-75
2021/03/11 09:56:12;;;;;;;;;;;15.50;50.50;;;;;;5018964;28;19925;-75
2021/03/11 09:58:42;;;;;;;;;;;15.60;50.70;;;;;;5018366;28;19922;-75
2021/03/11 10:01:09;;;;;;;;;;;15.60;50.60;;;;;;5015913;28;19941;-74
2021/03/11 10:03:35;;;;;;;;;;;15.60;50.70;;;;;;5018904;28;19921;-75
2021/03/11 10:06:03;;;;;;;;;;;15.80;50.60;;;;;;5019174;28;19962;-75
2021/03/11 10:08:32;;;;;;;;;;;15.90;50.40;;;;;;5018676;28;20309;-75
2021/03/11 10:10:59;;;;;;;;;;;15.80;50.60;;;;;;5018001;28;19929;-75
2021/03/11 10:13:32;;;;;;;;;;;15.80;50.80;;;;;;5017156;28;19921;-77
2021/03/11 10:15:59;;;;;;;;;;;15.80;51.00;;;;;;5013639;28;19976;-74
2021/03/11 10:18:25;;;;;;;;;;;15.80;51.30;;;;;;5014093;28;20290;-76
2021/03/11 10:20:59;;;;;;;;;;;15.90;51.90;;;;;;5015209;28;19929;-75
2021/03/11 10:23:25;;;;;;;;;;;16.10;51.30;;;;;;5008909;28;20020;-76
2021/03/11 10:26:06;;;;;;;;;;;16.30;51.00;;;;;;5013928;28;19968;-76
2021/03/11 10:28:34;;;;;;;;;;;16.40;50.60;;;;;;5014060;28;19929;-75
2021/03/11 10:31:00;;;;;;;;;;;16.60;50.50;;;;;;5013182;28;19921;-75
2021/03/11 10:33:26;;;;;;;;;;;16.60;50.40;;;;;;5014935;28;19921;-76
2021/03/11 10:35:53;;;;;;;;;;;16.70;50.30;;;;;;5014381;28;20382;-75
2021/03/11 10:38:21;;;;;;;;;;;16.70;50.40;;;;;;5014177;28;20384;-75
2021/03/11 10:40:47;;;;;;;;;;;16.60;50.70;;;;;;5014496;28;19922;-74
2021/03/11 10:43:17;;;;;;;;;;;16.60;51.20;;;;;;4998732;28;19926;-77
2021/03/11 10:45:45;;;;;;;;;;;16.60;51.20;;;;;;4997746;28;20278;-77
2021/03/11 10:48:12;;;;;;;;;;;16.60;51.50;;;;;;5014721;28;19925;-77
2021/03/11 10:50:40;;;;;;;;;;;16.60;51.60;;;;;;5015006;28;20005;-78
2021/03/11 10:53:06;;;;;;;;;;;16.50;51.70;;;;;;5009723;28;19968;-77
2021/03/11 10:55:34;;;;;;;;;;;16.50;51.80;;;;;;5013916;28;19921;-78
2021/03/11 10:58:01;;;;;;;;;;;16.40;52.20;;;;;;5011032;28;19929;-78
2021/03/11 11:00:28;;;;;;;;;;;16.20;52.90;;;;;;5014243;28;19975;-78
2021/03/11 11:02:56;;;;;;;;;;;16.10;53.20;;;;;;5014588;28;19925;-76
2021/03/11 11:05:23;;;;;;;;;;;16.10;53.50;;;;;;5014306;28;19921;-75
2021/03/11 11:07:49;;;;;;;;;;;16.00;53.80;;;;;;5014277;28;19929;-79
2021/03/11 11:10:16;;;;;;;;;;;15.90;54.20;;;;;;5012423;28;19925;-77
2021/03/11 11:12:43;;;;;;;;;;;15.90;54.70;;;;;;5013955;28;20007;-78
2021/03/11 11:15:10;;;;;;;;;;;15.90;56.30;;;;;;5013596;28;19925;-77
2021/03/11 11:17:36;;;;;;;;;;;15.70;57.80;;;;;;5013773;28;19967;-77
2021/03/11 11:20:04;;;;;;;;;;;15.50;59.30;;;;;;5013776;28;19922;-78
2021/03/11 11:22:31;;;;;;;;;;;15.40;60.40;;;;;;5013918;28;19921;-78
2021/03/11 11:24:58;;;;;;;;;;;15.30;62.00;;;;;;5011924;28;19921;-77
2021/03/11 11:27:24;;;;;;;;;;;15.20;63.30;;;;;;5013691;28;20401;-78
2021/03/11 11:29:51;;;;;;;;;;;15.10;63.40;;;;;;5013445;28;19925;-79
2021/03/11 11:32:17;;;;;;;;;;;15.00;64.40;;;;;;5013497;28;20298;-77
2021/03/11 11:34:44;;;;;;;;;;;15.00;65.00;;;;;;5014020;28;19932;-76
2021/03/11 11:37:11;;;;;;;;;;;15.00;65.40;;;;;;5012052;28;20428;-76
2021/03/11 11:39:38;;;;;;;;;;;15.00;65.50;;;;;;5013900;28;20293;-76
2021/03/11 11:42:05;;;;;;;;;;;15.00;65.60;;;;;;5013501;28;19926;-76
2021/03/11 11:44:31;;;;;;;;;;;14.90;66.10;;;;;;5013201;28;20290;-76
2021/03/11 11:46:57;;;;;;;;;;;14.90;66.70;;;;;;5013762;28;19921;-77
2021/03/11 11:49:24;;;;;;;;;;;14.80;66.90;;;;;;5013133;28;20360;-76
2021/03/11 11:51:50;;;;;;;;;;;14.80;67.20;;;;;;5013895;28;19937;-77
2021/03/11 11:54:17;;;;;;;;;;;14.90;67.60;;;;;;5013715;28;19925;-76
2021/03/11 11:56:43;;;;;;;;;;;14.80;67.60;;;;;;5012925;28;19969;-77
2021/03/11 11:59:10;;;;;;;;;;;14.80;68.00;;;;;;5013747;28;19928;-76
2021/03/11 12:01:36;;;;;;;;;;;14.90;68.40;;;;;;5013311;28;20437;-76
2021/03/11 12:04:02;;;;;;;;;;;14.90;67.70;;;;;;5013005;28;19921;-76
2021/03/11 12:06:29;;;;;;;;;;;15.00;67.90;;;;;;5011450;28;19929;-76
2021/03/11 12:08:55;;;;;;;;;;;15.10;67.50;;;;;;5013163;28;19944;-76
2021/03/11 12:11:22;;;;;;;;;;;15.20;67.20;;;;;;5013665;28;19921;-78
2021/03/11 12:13:49;;;;;;;;;;;15.30;66.70;;;;;;5012920;28;20018;-78
2021/03/11 12:16:15;;;;;;;;;;;15.40;66.70;;;;;;5013739;28;19921;-76
2021/03/11 12:18:41;;;;;;;;;;;15.40;65.80;;;;;;5012845;28;19922;-76
2021/03/11 12:21:08;;;;;;;;;;;15.30;66.60;;;;;;5012926;28;19921;-78
2021/03/11 12:23:34;;;;;;;;;;;15.30;66.40;;;;;;5013239;28;19929;-77
2021/03/11 12:26:00;;;;;;;;;;;15.30;66.50;;;;;;5013745;28;19929;-77
2021/03/11 12:28:28;;;;;;;;;;;15.20;66.60;;;;;;5012987;28;19975;-77
2021/03/11 12:30:55;;;;;;;;;;;15.20;67.10;;;;;;5013082;28;19921;-78
2021/03/11 12:33:21;;;;;;;;;;;15.30;68.00;;;;;;5010816;28;19925;-79
2021/03/11 12:35:48;;;;;;;;;;;15.40;67.50;;;;;;5012874;28;20313;-78
2021/03/11 12:38:14;;;;;;;;;;;15.50;66.30;;;;;;5011689;28;19937;-78
2021/03/11 12:40:41;;;;;;;;;;;15.50;66.10;;;;;;5011298;28;19929;-78
2021/03/11 12:43:07;;;;;;;;;;;15.60;66.20;;;;;;5009271;28;19921;-78
2021/03/11 12:45:35;;;;;;;;;;;15.80;65.70;;;;;;5013263;28;20301;-78
2021/03/11 12:48:01;;;;;;;;;;;15.90;64.70;;;;;;5012866;28;19929;-80
2021/03/11 12:50:27;;;;;;;;;;;16.00;63.90;;;;;;5012340;28;19929;-79
2021/03/11 12:52:54;;;;;;;;;;;16.00;63.30;;;;;;5012464;28;20340;-79
2021/03/11 12:55:20;;;;;;;;;;;16.00;63.20;;;;;;5008685;28;19967;-82
2021/03/11 12:57:47;;;;;;;;;;;16.10;63.60;;;;;;5010971;28;20321;-79
2021/03/11 13:00:14;;;;;;;;;;;16.20;63.20;;;;;;5009276;28;19948;-80
2021/03/11 13:02:41;;;;;;;;;;;16.30;62.70;;;;;;5010919;28;19928;-80
2021/03/11 13:05:08;;;;;;;;;;;16.20;62.80;;;;;;5011530;28;19921;-82
2021/03/11 13:07:34;;;;;;;;;;;16.20;62.40;;;;;;5011507;28;19961;-83
2021/03/11 13:10:01;;;;;;;;;;;16.10;62.20;;;;;;5011728;28;19921;-81
2021/03/11 13:12:27;;;;;;;;;;;16.10;62.40;;;;;;5011146;28;19941;-80
2021/03/11 13:14:54;;;;;;;;;;;16.10;62.80;;;;;;5012153;28;19930;-80
2021/03/11 13:17:20;;;;;;;;;;;16.10;63.20;;;;;;5009773;28;19925;-81
2021/03/11 13:19:48;;;;;;;;;;;16.10;63.30;;;;;;5008558;28;19922;-80
2021/03/11 13:22:15;;;;;;;;;;;16.20;63.30;;;;;;5011979;28;19921;-79
2021/03/11 13:24:42;;;;;;;;;;;16.20;63.30;;;;;;5011866;28;19928;-80
2021/03/11 13:27:10;;;;;;;;;;;16.20;62.90;;;;;;5009598;28;20452;-80
2021/03/11 13:29:36;;;;;;;;;;;16.20;63.40;;;;;;5010610;28;19968;-80
2021/03/11 13:32:03;;;;;;;;;;;16.10;62.60;;;;;;5010647;28;19929;-79
2021/03/11 13:34:30;;;;;;;;;;;16.00;62.60;;;;;;5012728;28;19956;-81
2021/03/11 13:36:57;;;;;;;;;;;16.10;63.00;;;;;;5011724;28;20325;-79
2021/03/11 13:39:24;;;;;;;;;;;16.10;63.00;;;;;;5010417;28;19921;-77
2021/03/11 13:41:50;;;;;;;;;;;16.10;62.70;;;;;;5010446;28;20341;-82
2021/03/11 13:44:17;;;;;;;;;;;16.00;62.80;;;;;;5012432;28;19922;-81
2021/03/11 13:46:43;;;;;;;;;;;16.10;62.50;;;;;;5011578;28;19930;-79
2021/03/11 13:49:09;;;;;;;;;;;16.20;62.50;;;;;;5015088;28;19936;-78
2021/03/11 13:51:36;;;;;;;;;;;16.20;62.00;;;;;;5013858;28;19928;-80
2021/03/11 13:54:03;;;;;;;;;;;16.30;61.60;;;;;;5012009;28;19968;-78
2021/03/11 13:56:29;;;;;;;;;;;16.30;61.80;;;;;;5016293;28;20279;-79
2021/03/11 13:58:56;;;;;;;;;;;16.40;61.60;;;;;;5016240;28;19951;-78
2021/03/11 14:01:22;;;;;;;;;;;16.40;61.40;;;;;;5009917;28;20392;-78
2021/03/11 14:03:49;;;;;;;;;;;16.30;61.60;;;;;;5014682;28;20370;-78
2021/03/11 14:06:15;;;;;;;;;;;16.30;61.60;;;;;;4999593;28;20012;-78
2021/03/11 14:08:42;;;;;;;;;;;16.30;61.40;;;;;;5015436;28;20546;-79
2021/03/11 14:11:09;;;;;;;;;;;16.10;61.40;;;;;;5012947;28;19975;-78
2021/03/11 14:13:36;;;;;;;;;;;16.10;61.90;;;;;;5014508;28;19922;-77
2021/03/11 14:16:03;;;;;;;;;;;16.10;61.80;;;;;;5012497;28;19928;-78
2021/03/11 14:18:30;;;;;;;;;;;16.20;61.80;;;;;;4995096;28;19925;-79
2021/03/11 14:20:56;;;;;;;;;;;16.30;61.40;;;;;;5004104;28;20329;-80